createdAt,value
2019-01-11T00:00:11.072Z,96074.3
2019-01-11T00:01:13.516Z,96074.5
2019-01-11T00:02:15.684Z,96067
2019-01-11T00:03:18.106Z,96071.9
2019-01-11T00:04:20.266Z,96069.5
2019-01-11T00:05:22.406Z,96069.8
2019-01-11T00:06:24.834Z,96067.1
2019-01-11T00:07:26.987Z,96068.1
2019-01-11T00:08:29.408Z,96063.4
2019-01-11T00:09:31.854Z,96062.8
2019-01-11T00:10:33.993Z,96067.2
2019-01-11T00:11:36.412Z,96066.2
2019-01-11T00:12:38.828Z,96065.5
2019-01-11T00:13:41.263Z,96066.8
2019-01-11T00:14:43.696Z,96071.4
2019-01-11T00:15:46.130Z,96071
2019-01-11T00:16:48.541Z,96071.2
2019-01-11T00:17:52.263Z,96073.4
2019-01-11T00:18:54.724Z,96071.4
2019-01-11T00:20:03.325Z,96071.2
2019-01-11T00:21:03.045Z,96071.8
2019-01-11T00:22:05.192Z,96071.6
2019-01-11T00:23:07.618Z,96073.8
2019-01-11T00:24:09.764Z,96069.1
2019-01-11T00:25:11.895Z,96070
2019-01-11T00:26:14.325Z,96067
2019-01-11T00:27:16.755Z,96067.2
2019-01-11T00:28:19.193Z,96072.3
2019-01-11T00:29:21.619Z,96074.1
2019-01-11T00:30:24.042Z,96072.4
2019-01-11T00:31:26.181Z,96071.3
2019-01-11T00:32:28.613Z,96072.5
2019-01-11T00:33:30.760Z,96078.2
2019-01-11T00:34:33.171Z,96077.6
2019-01-11T00:35:35.590Z,96080.4
2019-01-11T00:36:37.755Z,96079.8
2019-01-11T00:37:39.644Z,96078.2
2019-01-11T00:38:41.802Z,96082.2
2019-01-11T00:39:44.221Z,96083.5
2019-01-11T00:40:46.648Z,96078.1
2019-01-11T00:41:49.073Z,96074.7
2019-01-11T00:42:51.510Z,96076.6
2019-01-11T00:43:53.656Z,96077.2
2019-01-11T00:44:55.817Z,96080.7
2019-01-11T00:45:58.250Z,96077.7
2019-01-11T00:47:00.683Z,96081.2
2019-01-11T00:48:02.871Z,96075.8
2019-01-11T00:49:05.298Z,96073.2
2019-01-11T00:50:07.168Z,96076.2
2019-01-11T00:51:09.594Z,96076.8
2019-01-11T00:52:11.751Z,96078.4
2019-01-11T00:53:14.186Z,96076.9
2019-01-11T00:54:15.786Z,96077.3
2019-01-11T00:55:18.210Z,96075.4
2019-01-11T00:56:20.633Z,96079.5
2019-01-11T00:57:23.066Z,96073.4
2019-01-11T00:58:25.237Z,96077
2019-01-11T00:59:27.675Z,96076.1
2019-01-11T01:00:30.105Z,96072.8
2019-01-11T01:01:32.258Z,96071.6
2019-01-11T01:02:34.444Z,96071.1
2019-01-11T01:03:36.586Z,96071
2019-01-11T01:04:38.183Z,96071.8
2019-01-11T01:05:40.612Z,96072.3
2019-01-11T01:06:42.755Z,96071.4
2019-01-11T01:07:44.619Z,96069.2
2019-01-11T01:08:47.036Z,96069.6
2019-01-11T01:09:49.189Z,96073.7
2019-01-11T01:10:51.067Z,96071.2
2019-01-11T01:11:53.496Z,96076.6
2019-01-11T01:12:55.916Z,96076.6
2019-01-11T01:13:58.336Z,96070.2
2019-01-11T01:15:00.770Z,96074.5
2019-01-11T01:16:03.208Z,96076
2019-01-11T01:17:05.630Z,96074.1
2019-01-11T01:18:08.056Z,96076.4
2019-01-11T01:19:10.212Z,96082.4
2019-01-11T01:20:12.642Z,96078.7
2019-01-11T01:21:14.794Z,96083.7
2019-01-11T01:22:16.947Z,96089.2
2019-01-11T01:23:19.394Z,96086.8
2019-01-11T01:24:21.562Z,96082.4
2019-01-11T01:25:24.000Z,96086.3
2019-01-11T01:26:26.420Z,96084.8
2019-01-11T01:27:28.860Z,96087.9
2019-01-11T01:28:31.300Z,96087.9
2019-01-11T01:29:33.737Z,96085.8
2019-01-11T01:30:36.156Z,96087.6
2019-01-11T01:31:38.573Z,96089.4
2019-01-11T01:32:41.002Z,96095
2019-01-11T01:33:43.425Z,96095.6
2019-01-11T01:34:45.845Z,96100.8
2019-01-11T01:35:47.996Z,96095.4
2019-01-11T01:36:50.418Z,96100.8
2019-01-11T01:37:52.845Z,96104.9
2019-01-11T01:38:55.008Z,96107.4
2019-01-11T01:39:57.476Z,96106.9
2019-01-11T01:40:59.623Z,96114.6
2019-01-11T01:42:02.047Z,96109
2019-01-11T01:43:04.477Z,96115.3
2019-01-11T01:44:06.933Z,96111
2019-01-11T01:45:09.111Z,96110.5
2019-01-11T01:46:11.549Z,96113.1
2019-01-11T01:47:13.986Z,96109.5
2019-01-11T01:48:16.424Z,96110
2019-01-11T01:49:18.573Z,96112.6
2019-01-11T01:50:20.997Z,96107.8
2019-01-11T01:51:23.422Z,96111.3
2019-01-11T01:52:25.305Z,96109.6
2019-01-11T01:53:27.735Z,96110.8
2019-01-11T01:54:30.156Z,96117
2019-01-11T01:55:32.583Z,96109.4
2019-01-11T01:56:34.996Z,96112.6
2019-01-11T01:57:37.426Z,96113.4
2019-01-11T01:58:39.862Z,96116.1
2019-01-11T01:59:42.006Z,96116.4
2019-01-11T02:00:44.142Z,96113.4
2019-01-11T02:01:46.586Z,96117.9
2019-01-11T02:02:49.023Z,96119.4
2019-01-11T02:03:51.454Z,96112.3
2019-01-11T02:04:53.896Z,96115.8
2019-01-11T02:05:56.319Z,96117.3
2019-01-11T02:06:58.774Z,96115.7
2019-01-11T02:08:01.202Z,96117.2
2019-01-11T02:09:03.357Z,96123
2019-01-11T02:10:05.794Z,96120.5
2019-01-11T02:11:08.207Z,96122.6
2019-01-11T02:12:10.637Z,96120.6
2019-01-11T02:13:13.054Z,96121.7
2019-01-11T02:14:15.484Z,96122
2019-01-11T02:15:17.902Z,96127.4
2019-01-11T02:16:20.332Z,96124.3
2019-01-11T02:17:22.499Z,96130.1
2019-01-11T02:18:24.666Z,96130.5
2019-01-11T02:20:33.022Z,96130.3
2019-01-11T02:21:35.169Z,96128.3
2019-01-11T02:22:37.595Z,96130.3
2019-01-11T02:23:39.477Z,96132.5
2019-01-11T02:24:41.903Z,96130.8
2019-01-11T02:26:49.305Z,96128.2
2019-01-11T02:27:51.726Z,96129.8
2019-01-11T02:28:54.165Z,96131
2019-01-11T02:29:56.043Z,96125.6
2019-01-11T02:30:58.472Z,96127.8
2019-01-11T02:32:00.092Z,96127.8
2019-01-11T02:33:02.515Z,96122.5
2019-01-11T02:34:04.683Z,96119.4
2019-01-11T02:35:06.826Z,96118.1
2019-01-11T02:36:08.989Z,96120.7
2019-01-11T02:37:10.860Z,96118.3
2019-01-11T02:38:13.300Z,96118.3
2019-01-11T02:39:15.727Z,96117.9
2019-01-11T02:40:18.207Z,96118.3
2019-01-11T02:41:20.625Z,96116.9
2019-01-11T02:42:22.516Z,96117.3
2019-01-11T02:43:24.989Z,96117.1
2019-01-11T02:44:27.192Z,96113
2019-01-11T02:45:29.615Z,96115.2
2019-01-11T02:46:31.496Z,96115.5
2019-01-11T02:47:33.916Z,96112.1
2019-01-11T02:48:36.086Z,96112.4
2019-01-11T02:50:43.486Z,96107.8
2019-01-11T02:51:45.912Z,96100
2019-01-11T02:52:48.339Z,96106.1
2019-01-11T02:53:50.758Z,96100.4
2019-01-11T02:54:53.194Z,96105.8
2019-01-11T02:55:55.065Z,96106.9
2019-01-11T02:56:57.226Z,96098.3
2019-01-11T02:57:59.656Z,96097.9
2019-01-11T02:59:03.418Z,96099.6
2019-01-11T03:00:05.581Z,96101.2
2019-01-11T03:01:08.001Z,96093.9
2019-01-11T03:02:10.162Z,96096.3
2019-01-11T03:03:12.604Z,96095.6
2019-01-11T03:04:15.024Z,96101
2019-01-11T03:05:16.881Z,96098.7
2019-01-11T03:06:19.316Z,96091.8
2019-01-11T03:07:20.910Z,96084.8
2019-01-11T03:08:23.348Z,96087.4
2019-01-11T03:09:25.754Z,96089.2
2019-01-11T03:10:28.190Z,96086
2019-01-11T03:11:30.322Z,96085.1
2019-01-11T03:12:32.735Z,96084.3
2019-01-11T03:13:34.902Z,96084.8
2019-01-11T03:14:37.342Z,96086.1
2019-01-11T03:15:39.251Z,96087.5
2019-01-11T03:16:41.664Z,96084.3
2019-01-11T03:17:44.104Z,96088
2019-01-11T03:18:46.526Z,96087.5
2019-01-11T03:19:49.505Z,96087.4
2019-01-11T03:20:51.684Z,96086.2
2019-01-11T03:21:54.112Z,96082
2019-01-11T03:22:56.527Z,96082.2
2019-01-11T03:23:58.943Z,96084.4
2019-01-11T03:25:01.370Z,96082.2
2019-01-11T03:26:03.811Z,96081.6
2019-01-11T03:27:06.234Z,96077.7
2019-01-11T03:28:08.401Z,96081.5
2019-01-11T03:29:10.827Z,96079.6
2019-01-11T03:30:13.287Z,96080.7
2019-01-11T03:31:15.431Z,96080.4
2019-01-11T03:32:17.859Z,96083.6
2019-01-11T03:33:20.283Z,96084.7
2019-01-11T03:34:22.712Z,96081.5
2019-01-11T03:35:24.854Z,96083.9
2019-01-11T03:36:27.340Z,96083.5
2019-01-11T03:37:29.782Z,96087.1
2019-01-11T03:38:32.205Z,96086.8
2019-01-11T03:39:34.368Z,96092.4
2019-01-11T03:40:35.987Z,96092.7
2019-01-11T03:41:38.137Z,96087.9
2019-01-11T03:42:40.552Z,96091.3
2019-01-11T03:43:42.976Z,96089.6
2019-01-11T03:44:45.126Z,96088.4
2019-01-11T03:45:47.555Z,96092
2019-01-11T03:46:49.440Z,96091.1
2019-01-11T03:47:51.594Z,96093.9
2019-01-11T03:48:54.018Z,96087.8
2019-01-11T03:49:56.674Z,96094
2019-01-11T03:50:59.096Z,96093.2
2019-01-11T03:52:01.256Z,96094.5
2019-01-11T03:53:03.144Z,96096.8
2019-01-11T03:54:05.038Z,96094
2019-01-11T03:55:07.498Z,96096.3
2019-01-11T03:56:09.925Z,96096.8
2019-01-11T03:57:12.355Z,96099.9
2019-01-11T03:58:14.492Z,96104.8
2019-01-11T03:59:16.634Z,96103
2019-01-11T04:00:18.785Z,96105
2019-01-11T04:01:21.204Z,96102
2019-01-11T04:02:23.357Z,96101.7
2019-01-11T04:03:25.502Z,96104.1
2019-01-11T04:04:27.927Z,96104.6
2019-01-11T04:05:30.085Z,96102.8
2019-01-11T04:06:32.518Z,96103.8
2019-01-11T04:07:34.934Z,96104.8
2019-01-11T04:08:37.371Z,96106.4
2019-01-11T04:09:39.794Z,96101.8
2019-01-11T04:10:41.960Z,96104.1
2019-01-11T04:11:44.388Z,96107.4
2019-01-11T04:12:46.546Z,96105.3
2019-01-11T04:13:48.670Z,96104.2
2019-01-11T04:14:51.105Z,96101.4
2019-01-11T04:15:53.532Z,96099.1
2019-01-11T04:16:55.963Z,96106.3
2019-01-11T04:17:58.391Z,96105.3
2019-01-11T04:19:00.251Z,96105.4
2019-01-11T04:20:03.836Z,96101.8
2019-01-11T04:21:05.746Z,96109
2019-01-11T04:22:08.213Z,96102.5
2019-01-11T04:23:10.372Z,96103.4
2019-01-11T04:24:12.796Z,96105.5
2019-01-11T04:25:14.955Z,96104.1
2019-01-11T04:26:17.374Z,96106.7
2019-01-11T04:27:19.792Z,96102.6
2019-01-11T04:28:21.395Z,96108.4
2019-01-11T04:29:23.831Z,96109.5
2019-01-11T04:30:26.281Z,96110
2019-01-11T04:31:28.711Z,96110
2019-01-11T04:32:31.135Z,96108.7
2019-01-11T04:33:33.562Z,96111.6
2019-01-11T04:34:35.735Z,96108.8
2019-01-11T04:35:37.659Z,96112.1
2019-01-11T04:36:39.812Z,96109.3
2019-01-11T04:37:41.987Z,96109.7
2019-01-11T04:38:44.156Z,96110.4
2019-01-11T04:39:46.605Z,96109.8
2019-01-11T04:40:49.038Z,96111.9
2019-01-11T04:41:51.187Z,96112.8
2019-01-11T04:42:53.624Z,96116.8
2019-01-11T04:43:56.052Z,96113.2
2019-01-11T04:44:58.227Z,96115.6
2019-01-11T04:46:00.645Z,96112.3
2019-01-11T04:47:03.077Z,96118.5
2019-01-11T04:48:05.228Z,96114.6
2019-01-11T04:49:07.382Z,96116.3
2019-01-11T04:50:11.040Z,96114.9
2019-01-11T04:51:13.458Z,96115.6
2019-01-11T04:52:15.884Z,96114.1
2019-01-11T04:53:18.035Z,96112.4
2019-01-11T04:54:20.463Z,96115.6
2019-01-11T04:55:22.119Z,96115.4
2019-01-11T04:56:23.988Z,96116.2
2019-01-11T04:57:26.419Z,96115.7
2019-01-11T04:58:28.829Z,96110.1
2019-01-11T04:59:31.281Z,96110.2
2019-01-11T05:00:33.427Z,96111.4
2019-01-11T05:01:35.850Z,96110
2019-01-11T05:02:38.018Z,96110.1
2019-01-11T05:03:40.147Z,96108.6
2019-01-11T05:04:42.305Z,96107.3
2019-01-11T05:05:44.194Z,96110.4
2019-01-11T05:06:46.629Z,96107.6
2019-01-11T05:07:48.778Z,96107.3
2019-01-11T05:08:50.935Z,96110.9
2019-01-11T05:09:53.090Z,96109.7
2019-01-11T05:10:55.249Z,96110.8
2019-01-11T05:11:57.668Z,96108.6
2019-01-11T05:12:59.822Z,96103.2
2019-01-11T05:14:01.975Z,96109.3
2019-01-11T05:15:04.137Z,96107.4
2019-01-11T05:16:06.568Z,96109.2
2019-01-11T05:17:08.990Z,96110.1
2019-01-11T05:18:11.409Z,96104.1
2019-01-11T05:19:13.833Z,96106.2
2019-01-11T05:20:18.359Z,96106.7
2019-01-11T05:21:20.783Z,96113.1
2019-01-11T05:22:23.219Z,96115.3
2019-01-11T05:23:25.378Z,96111.6
2019-01-11T05:24:27.797Z,96108.8
2019-01-11T05:25:30.246Z,96114.4
2019-01-11T05:26:32.393Z,96116.1
2019-01-11T05:27:34.604Z,96113.9
2019-01-11T05:28:37.054Z,96110.4
2019-01-11T05:29:39.483Z,96112.8
2019-01-11T05:30:41.906Z,96113.1
2019-01-11T05:31:44.330Z,96115.5
2019-01-11T05:32:46.781Z,96111.6
2019-01-11T05:33:49.218Z,96113.4
2019-01-11T05:34:51.404Z,96116.8
2019-01-11T05:35:53.825Z,96112
2019-01-11T05:36:56.248Z,96112.1
2019-01-11T05:37:58.421Z,96119.6
2019-01-11T05:39:00.854Z,96116.6
2019-01-11T05:40:03.295Z,96115.7
2019-01-11T05:41:05.446Z,96118.4
2019-01-11T05:42:07.605Z,96115.3
2019-01-11T05:43:09.757Z,96114.8
2019-01-11T05:44:12.202Z,96116
2019-01-11T05:45:14.087Z,96119.2
2019-01-11T05:46:15.711Z,96117.6
2019-01-11T05:47:17.905Z,96118.5
2019-01-11T05:48:20.335Z,96116
2019-01-11T05:49:22.216Z,96119.4
2019-01-11T05:50:25.883Z,96111.9
2019-01-11T05:51:27.491Z,96111.8
2019-01-11T05:52:29.919Z,96116.4
2019-01-11T05:53:32.351Z,96115.4
2019-01-11T05:54:34.764Z,96118.2
2019-01-11T05:55:36.637Z,96114.2
2019-01-11T05:56:38.777Z,96112
2019-01-11T05:57:40.935Z,96112.9
2019-01-11T05:58:43.374Z,96110.3
2019-01-11T05:59:45.813Z,96108.1
2019-01-11T06:00:48.235Z,96111.3
2019-01-11T06:01:50.655Z,96115
2019-01-11T06:02:53.078Z,96111.3
2019-01-11T06:03:54.965Z,96112
2019-01-11T06:04:58.838Z,96114.4
2019-01-11T06:06:00.995Z,96114.5
2019-01-11T06:07:03.415Z,96115.1
2019-01-11T06:08:05.845Z,96113.5
2019-01-11T06:09:08.300Z,96115.7
2019-01-11T06:10:10.722Z,96117
2019-01-11T06:11:13.141Z,96116
2019-01-11T06:12:15.561Z,96120.1
2019-01-11T06:13:17.725Z,96117.4
2019-01-11T06:14:19.845Z,96122.1
2019-01-11T06:15:22.328Z,96112
2019-01-11T06:16:24.756Z,96114.2
2019-01-11T06:17:26.651Z,96117.9
2019-01-11T06:18:29.084Z,96114.9
2019-01-11T06:19:31.236Z,96121.8
2019-01-11T06:20:32.545Z,96123.5
2019-01-11T06:21:34.972Z,96120.8
2019-01-11T06:22:37.401Z,96122
2019-01-11T06:23:39.847Z,96121.8
2019-01-11T06:24:42.285Z,96121.6
2019-01-11T06:25:44.701Z,96121.3
2019-01-11T06:26:47.133Z,96122.8
2019-01-11T06:27:49.291Z,96122.5
2019-01-11T06:28:51.459Z,96120.5
2019-01-11T06:29:53.599Z,96120.3
2019-01-11T06:30:56.031Z,96126.1
2019-01-11T06:31:58.195Z,96121.3
2019-01-11T06:33:00.615Z,96118.1
2019-01-11T06:34:03.041Z,96115.5
2019-01-11T06:35:05.193Z,96120.8
2019-01-11T06:36:07.353Z,96118.9
2019-01-11T06:37:09.792Z,96116.1
2019-01-11T06:38:12.210Z,96118.3
2019-01-11T06:39:14.643Z,96114.1
2019-01-11T06:40:18.313Z,96115.4
2019-01-11T06:41:20.735Z,96116.9
2019-01-11T06:42:22.339Z,96118.4
2019-01-11T06:43:24.796Z,96114.6
2019-01-11T06:44:27.289Z,96115.1
2019-01-11T06:45:30.745Z,96113
2019-01-11T06:46:33.181Z,96115.1
2019-01-11T06:47:35.615Z,96119.9
2019-01-11T06:48:38.043Z,96112.4
2019-01-11T06:49:40.200Z,96117.9
2019-01-11T06:50:42.623Z,96119.8
2019-01-11T06:51:45.054Z,96117.2
2019-01-11T06:52:47.205Z,96121.1
2019-01-11T06:53:49.358Z,96122.4
2019-01-11T06:54:51.783Z,96123.3
2019-01-11T06:55:53.935Z,96128.2
2019-01-11T06:56:56.375Z,96124.9
2019-01-11T06:57:58.535Z,96127.1
2019-01-11T06:59:00.971Z,96123.6
2019-01-11T07:00:03.479Z,96128.4
2019-01-11T07:01:05.633Z,96126.1
2019-01-11T07:02:08.065Z,96125.6
2019-01-11T07:03:10.499Z,96126.8
2019-01-11T07:04:12.919Z,96130.4
2019-01-11T07:05:15.345Z,96129.4
2019-01-11T07:06:17.523Z,96127.4
2019-01-11T07:07:19.951Z,96124.6
2019-01-11T07:08:22.095Z,96127.6
2019-01-11T07:09:24.531Z,96123.4
2019-01-11T07:10:26.683Z,96125.8
2019-01-11T07:11:29.105Z,96129
2019-01-11T07:12:31.539Z,96127.9
2019-01-11T07:13:33.716Z,96125
2019-01-11T07:14:36.154Z,96127.7
2019-01-11T07:15:38.581Z,96129.2
2019-01-11T07:16:40.734Z,96125.9
2019-01-11T07:17:43.166Z,96131.4
2019-01-11T07:18:45.629Z,96127.5
2019-01-11T07:19:48.063Z,96129.2
2019-01-11T07:20:50.503Z,96135.5
2019-01-11T07:21:52.933Z,96132.5
2019-01-11T07:22:54.823Z,96127.4
2019-01-11T07:23:57.271Z,96136.8
2019-01-11T07:24:59.458Z,96135
2019-01-11T07:26:01.891Z,96134.8
2019-01-11T07:27:04.319Z,96133
2019-01-11T07:28:06.745Z,96134.5
2019-01-11T07:29:13.660Z,96134.5
2019-01-11T07:30:16.095Z,96137
2019-01-11T07:31:18.241Z,96139.3
2019-01-11T07:32:20.663Z,96135.9
2019-01-11T07:33:23.087Z,96135.9
2019-01-11T07:34:25.227Z,96134.2
2019-01-11T07:35:27.363Z,96137.8
2019-01-11T07:36:29.493Z,96133.4
2019-01-11T07:37:31.951Z,96134.4
2019-01-11T07:38:34.387Z,96136.8
2019-01-11T07:39:36.553Z,96132.5
2019-01-11T07:40:38.981Z,96135.5
2019-01-11T07:41:41.407Z,96131.6
2019-01-11T07:42:43.829Z,96130.9
2019-01-11T07:43:45.983Z,96131.3
2019-01-11T07:44:48.422Z,96135.3
2019-01-11T07:45:50.845Z,96130.1
2019-01-11T07:46:53.265Z,96132
2019-01-11T07:47:55.686Z,96133.3
2019-01-11T07:48:58.120Z,96131.7
2019-01-11T07:50:00.593Z,96127.2
2019-01-11T07:51:03.033Z,96128.3
2019-01-11T07:52:05.230Z,96128.4
2019-01-11T07:53:07.371Z,96128.3
2019-01-11T07:54:09.521Z,96129.7
2019-01-11T07:55:11.957Z,96130.3
2019-01-11T07:56:14.389Z,96135.3
2019-01-11T07:57:16.829Z,96130.9
2019-01-11T07:58:19.269Z,96132.1
2019-01-11T07:59:21.431Z,96130
2019-01-11T08:00:23.856Z,96129.1
2019-01-11T08:01:25.998Z,96132.7
2019-01-11T08:02:28.184Z,96134.6
2019-01-11T08:03:30.366Z,96133.7
2019-01-11T08:04:32.795Z,96133.1
2019-01-11T08:05:35.236Z,96134.5
2019-01-11T08:06:37.662Z,96136.6
2019-01-11T08:07:40.092Z,96134.8
2019-01-11T08:08:42.514Z,96139.9
2019-01-11T08:09:44.668Z,96138.9
2019-01-11T08:10:46.839Z,96139.1
2019-01-11T08:11:48.992Z,96135.9
2019-01-11T08:12:51.424Z,96142.5
2019-01-11T08:13:53.575Z,96141.4
2019-01-11T08:14:56.003Z,96140.9
2019-01-11T08:15:57.906Z,96135.2
2019-01-11T08:17:00.064Z,96138.7
2019-01-11T08:18:02.482Z,96139.9
2019-01-11T08:19:04.632Z,96140.4
2019-01-11T08:20:07.061Z,96144.3
2019-01-11T08:21:09.496Z,96144.5
2019-01-11T08:22:11.656Z,96144.7
2019-01-11T08:23:14.255Z,96142.3
2019-01-11T08:24:18.324Z,96144.5
2019-01-11T08:25:20.774Z,96143.1
2019-01-11T08:26:23.192Z,96142.5
2019-01-11T08:27:25.338Z,96140.9
2019-01-11T08:28:27.470Z,96144.1
2019-01-11T08:29:29.358Z,96139.2
2019-01-11T08:30:31.783Z,96146.8
2019-01-11T08:31:36.303Z,96143.4
2019-01-11T08:32:38.451Z,96143.3
2019-01-11T08:33:40.880Z,96142.7
2019-01-11T08:34:42.744Z,96144.8
2019-01-11T08:35:44.872Z,96144.9
2019-01-11T08:36:47.295Z,96146.1
2019-01-11T08:37:49.463Z,96146.4
2019-01-11T08:38:51.622Z,96142.6
2019-01-11T08:39:54.044Z,96139.2
2019-01-11T08:40:56.226Z,96139
2019-01-11T08:41:58.706Z,96135.5
2019-01-11T08:43:01.146Z,96143.3
2019-01-11T08:44:03.570Z,96142.3
2019-01-11T08:45:05.714Z,96146.5
2019-01-11T08:46:08.171Z,96142.1
2019-01-11T08:47:10.604Z,96144.7
2019-01-11T08:48:13.029Z,96143.4
2019-01-11T08:49:15.453Z,96140.1
2019-01-11T08:50:17.888Z,96140.1
2019-01-11T08:51:20.324Z,96140.9
2019-01-11T08:52:22.745Z,96138.5
2019-01-11T08:53:25.181Z,96138.5
2019-01-11T08:54:27.332Z,96140.1
2019-01-11T08:55:29.474Z,96142
2019-01-11T08:56:31.898Z,96140.6
2019-01-11T08:57:34.342Z,96144.3
2019-01-11T08:58:36.777Z,96141
2019-01-11T08:59:39.205Z,96145.3
2019-01-11T09:00:41.340Z,96144.6
2019-01-11T09:01:43.511Z,96146.6
2019-01-11T09:02:45.959Z,96144.3
2019-01-11T09:03:48.377Z,96147.3
2019-01-11T09:04:50.285Z,96149
2019-01-11T09:05:52.720Z,96147.4
2019-01-11T09:06:54.867Z,96146.9
2019-01-11T09:07:57.295Z,96149.6
2019-01-11T09:08:59.226Z,96148
2019-01-11T09:10:01.396Z,96149.3
2019-01-11T09:11:03.254Z,96147.9
2019-01-11T09:12:05.684Z,96148.9
2019-01-11T09:13:08.133Z,96153.6
2019-01-11T09:14:10.564Z,96153.6
2019-01-11T09:15:12.988Z,96149.6
2019-01-11T09:17:20.396Z,96151.8
2019-01-11T09:18:22.578Z,96151.7
2019-01-11T09:19:25.015Z,96149.9
2019-01-11T09:20:27.174Z,96150
2019-01-11T09:21:29.602Z,96144.5
2019-01-11T09:22:32.041Z,96147.3
2019-01-11T09:23:34.209Z,96147.1
2019-01-11T09:24:36.634Z,96148.4
2019-01-11T09:25:39.075Z,96150.6
2019-01-11T09:26:41.504Z,96153.4
2019-01-11T09:27:43.936Z,96150.6
2019-01-11T09:28:46.395Z,96152.1
2019-01-11T09:29:48.828Z,96151.6
2019-01-11T09:30:51.273Z,96149
2019-01-11T09:31:53.706Z,96150.7
2019-01-11T09:32:55.860Z,96153
2019-01-11T09:33:57.466Z,96155.1
2019-01-11T09:34:59.901Z,96155.6
2019-01-11T09:36:02.322Z,96154.3
2019-01-11T09:37:04.750Z,96155.9
2019-01-11T09:38:07.289Z,96152.3
2019-01-11T09:39:09.468Z,96150.6
2019-01-11T09:40:11.615Z,96154.9
2019-01-11T09:41:13.782Z,96150.7
2019-01-11T09:42:16.209Z,96153.3
2019-01-11T09:43:18.366Z,96149.3
2019-01-11T09:44:20.528Z,96149.1
2019-01-11T09:45:22.967Z,96148.1
2019-01-11T09:46:25.102Z,96146.9
2019-01-11T09:47:27.235Z,96146.5
2019-01-11T09:48:29.671Z,96148.9
2019-01-11T09:49:32.959Z,96150.9
2019-01-11T09:50:35.403Z,96148.9
2019-01-11T09:51:37.702Z,96145.9
2019-01-11T09:52:40.124Z,96146
2019-01-11T09:53:42.564Z,96150.1
2019-01-11T09:54:46.033Z,96150.5
2019-01-11T09:55:47.958Z,96146.6
2019-01-11T09:56:49.824Z,96146.1
2019-01-11T09:57:52.241Z,96139.9
2019-01-11T09:58:54.388Z,96148.6
2019-01-11T09:59:56.822Z,96138.2
2019-01-11T10:01:00.737Z,96140.1
2019-01-11T10:02:02.900Z,96142.4
2019-01-11T10:03:05.337Z,96142.4
2019-01-11T10:04:07.771Z,96138.7
2019-01-11T10:05:09.892Z,96138.5
2019-01-11T10:06:12.333Z,96138.3
2019-01-11T10:07:14.499Z,96140.2
2019-01-11T10:08:16.927Z,96134.3
2019-01-11T10:09:18.828Z,96131.8
2019-01-11T10:10:20.981Z,96138.5
2019-01-11T10:11:23.430Z,96132.5
2019-01-11T10:12:25.594Z,96137.5
2019-01-11T10:13:28.040Z,96141.6
2019-01-11T10:14:30.469Z,96140.1
2019-01-11T10:15:32.350Z,96137
2019-01-11T10:16:34.784Z,96135.3
2019-01-11T10:17:36.959Z,96136
2019-01-11T10:18:39.400Z,96132.5
2019-01-11T10:19:41.845Z,96130.3
2019-01-11T10:20:44.275Z,96126.6
2019-01-11T10:21:46.435Z,96128.6
2019-01-11T10:22:48.574Z,96125.4
2019-01-11T10:23:51.006Z,96121
2019-01-11T10:24:53.435Z,96123.5
2019-01-11T10:25:55.603Z,96120
2019-01-11T10:26:59.006Z,96120.5
2019-01-11T10:28:00.940Z,96118.4
2019-01-11T10:29:03.397Z,96118.3
2019-01-11T10:30:05.813Z,96115.3
2019-01-11T10:31:08.250Z,96118
2019-01-11T10:32:10.685Z,96117
2019-01-11T10:33:13.108Z,96116.3
2019-01-11T10:34:15.266Z,96113.8
2019-01-11T10:35:17.151Z,96118.8
2019-01-11T10:36:19.582Z,96111.6
2019-01-11T10:37:21.473Z,96112.7
2019-01-11T10:38:23.916Z,96113
2019-01-11T10:39:26.342Z,96112.2
2019-01-11T10:40:28.783Z,96107.3
2019-01-11T10:41:30.645Z,96106
2019-01-11T10:42:33.074Z,96107.7
2019-01-11T10:43:35.504Z,96103.3
2019-01-11T10:44:37.658Z,96106.1
2019-01-11T10:45:39.815Z,96105.8
2019-01-11T10:46:41.983Z,96106.1
2019-01-11T10:47:48.899Z,96104.8
2019-01-11T10:48:51.322Z,96101.6
2019-01-11T10:49:53.453Z,96100.9
2019-01-11T10:50:55.874Z,96098.6
2019-01-11T10:51:58.347Z,96096.8
2019-01-11T10:53:00.493Z,96097.7
2019-01-11T10:54:02.624Z,96093.7
2019-01-11T10:55:04.770Z,96092.6
2019-01-11T10:56:06.944Z,96096.2
2019-01-11T10:57:09.103Z,96092.6
2019-01-11T10:58:11.558Z,96097.8
2019-01-11T10:59:13.991Z,96092
2019-01-11T11:00:16.438Z,96090.9
2019-01-11T11:01:18.606Z,96089.7
2019-01-11T11:02:21.058Z,96084.4
2019-01-11T11:03:23.505Z,96079.2
2019-01-11T11:04:25.944Z,96090
2019-01-11T11:05:28.111Z,96088.6
2019-01-11T11:06:30.535Z,96087.9
2019-01-11T11:07:32.960Z,96088.4
2019-01-11T11:08:35.385Z,96082.7
2019-01-11T11:09:37.807Z,96086.1
2019-01-11T11:10:39.956Z,96082.5
2019-01-11T11:11:42.123Z,96086.7
2019-01-11T11:12:44.554Z,96082.7
2019-01-11T11:13:46.717Z,96085.3
2019-01-11T11:14:49.156Z,96083.8
2019-01-11T11:15:51.585Z,96086.1
2019-01-11T11:16:54.025Z,96087
2019-01-11T11:17:56.441Z,96085.9
2019-01-11T11:18:58.612Z,96088.7
2019-01-11T11:20:01.114Z,96085.1
2019-01-11T11:21:03.533Z,96083.1
2019-01-11T11:22:05.393Z,96087.5
2019-01-11T11:23:07.868Z,96085.9
2019-01-11T11:24:10.313Z,96083.4
2019-01-11T11:25:12.746Z,96087.7
2019-01-11T11:26:15.178Z,96088.5
2019-01-11T11:27:17.062Z,96087.4
2019-01-11T11:28:19.499Z,96087
2019-01-11T11:29:21.922Z,96088.8
2019-01-11T11:30:24.339Z,96084.9
2019-01-11T11:31:26.476Z,96080.6
2019-01-11T11:32:28.911Z,96079.7
2019-01-11T11:33:31.343Z,96079.5
2019-01-11T11:34:33.497Z,96071.9
2019-01-11T11:35:35.923Z,96067.5
2019-01-11T11:36:38.345Z,96072.5
2019-01-11T11:37:40.767Z,96072.4
2019-01-11T11:38:43.192Z,96070.5
2019-01-11T11:39:45.355Z,96068.6
2019-01-11T11:40:47.799Z,96067.4
2019-01-11T11:41:49.690Z,96066.1
2019-01-11T11:42:51.854Z,96068.9
2019-01-11T11:43:54.295Z,96066.4
2019-01-11T11:44:56.198Z,96068.3
2019-01-11T11:45:58.359Z,96070.4
2019-01-11T11:47:00.807Z,96074.7
2019-01-11T11:48:04.354Z,96070.5
2019-01-11T11:49:06.778Z,96064.7
2019-01-11T11:50:08.671Z,96067.2
2019-01-11T11:51:10.839Z,96073.1
2019-01-11T11:52:12.993Z,96073
2019-01-11T11:53:15.765Z,96067.6
2019-01-11T11:54:17.645Z,96072.7
2019-01-11T11:55:19.785Z,96073.3
2019-01-11T11:56:22.246Z,96069.2
2019-01-11T11:57:23.886Z,96071.7
2019-01-11T11:58:25.769Z,96071.3
2019-01-11T11:59:28.195Z,96069.5
2019-01-11T12:00:30.068Z,96066.6
2019-01-11T12:01:32.505Z,96070.2
2019-01-11T12:02:34.933Z,96063.4
2019-01-11T12:03:37.091Z,96068.6
2019-01-11T12:04:38.984Z,96067.2
2019-01-11T12:05:41.424Z,96064.3
2019-01-11T12:06:43.884Z,96062.2
2019-01-11T12:07:46.314Z,96069.9
2019-01-11T12:08:48.751Z,96066.2
2019-01-11T12:09:50.957Z,96060.1
2019-01-11T12:10:53.117Z,96061.8
2019-01-11T12:11:55.289Z,96056.8
2019-01-11T12:12:57.738Z,96054.2
2019-01-11T12:13:59.870Z,96053
2019-01-11T12:15:02.311Z,96053.4
2019-01-11T12:16:04.744Z,96055.5
2019-01-11T12:17:07.186Z,96058
2019-01-11T12:18:09.616Z,96056.7
2019-01-11T12:19:11.519Z,96053
2019-01-11T12:20:13.392Z,96059.5
2019-01-11T12:21:15.825Z,96058
2019-01-11T12:22:17.985Z,96058.5
2019-01-11T12:23:20.135Z,96051.2
2019-01-11T12:24:22.285Z,96054.4
2019-01-11T12:25:24.435Z,96056
2019-01-11T12:26:26.876Z,96054.3
2019-01-11T12:27:29.051Z,96050.8
2019-01-11T12:28:31.495Z,96057.3
2019-01-11T12:29:33.938Z,96054.6
2019-01-11T12:30:36.129Z,96054.9
2019-01-11T12:31:38.556Z,96058.9
2019-01-11T12:32:41.014Z,96062.9
2019-01-11T12:33:43.187Z,96060.2
2019-01-11T12:34:45.620Z,96062
2019-01-11T12:35:47.510Z,96057.1
2019-01-11T12:36:49.665Z,96059.1
2019-01-11T12:37:52.118Z,96054.5
2019-01-11T12:38:54.558Z,96047.8
2019-01-11T12:39:57.019Z,96057.2
2019-01-11T12:40:59.194Z,96054.7
2019-01-11T12:42:01.637Z,96057.5
2019-01-11T12:43:03.830Z,96058.1